createdAt,value
2023-02-18T00:01:33.300Z,4.18
2023-02-18T00:04:00.997Z,3.90
2023-02-18T00:06:34.322Z,4.00
2023-02-18T00:09:02.376Z,4.30
2023-02-18T00:11:32.023Z,3.97
2023-02-18T00:14:01.613Z,4.10
2023-02-18T00:16:29.881Z,4.28
2023-02-18T00:19:02.756Z,3.60
2023-02-18T00:21:29.839Z,3.50
2023-02-18T00:23:56.605Z,3.90
2023-02-18T00:26:24.059Z,3.65
2023-02-18T00:28:54.344Z,4.38
2023-02-18T00:31:24.377Z,4.18
2023-02-18T00:33:51.695Z,3.75
2023-02-18T00:36:19.656Z,4.00
2023-02-18T00:39:01.829Z,3.85
2023-02-18T00:41:29.440Z,4.03
2023-02-18T00:43:56.579Z,3.83
2023-02-18T00:46:25.018Z,4.10
2023-02-18T00:48:51.783Z,3.88
2023-02-18T00:51:18.461Z,3.95
2023-02-18T00:53:45.425Z,3.78
2023-02-18T00:56:12.176Z,4.68
2023-02-18T00:58:39.530Z,4.47
2023-02-18T01:01:07.876Z,4.32
2023-02-18T01:03:39.131Z,4.05
2023-02-18T01:06:07.719Z,4.10
2023-02-18T01:08:35.913Z,4.55
2023-02-18T01:11:03.865Z,4.40
2023-02-18T01:13:31.475Z,4.45
2023-02-18T01:15:58.343Z,4.32
2023-02-18T01:18:26.480Z,4.40
2023-02-18T01:20:53.674Z,4.35
2023-02-18T01:23:20.690Z,4.20
2023-02-18T01:25:47.359Z,4.82
2023-02-18T01:28:15.391Z,4.22
2023-02-18T01:30:42.408Z,4.68
2023-02-18T01:33:09.803Z,5.22
2023-02-18T01:35:41.406Z,4.53
2023-02-18T01:38:09.059Z,4.30
2023-02-18T01:40:43.547Z,4.43
2023-02-18T01:43:12.240Z,5.00
2023-02-18T01:45:51.159Z,4.28
2023-02-18T01:48:26.808Z,4.78
2023-02-18T01:51:00.159Z,5.10
2023-02-18T01:53:31.827Z,4.68
2023-02-18T01:56:00.231Z,4.32
2023-02-18T01:58:27.009Z,4.60
2023-02-18T02:00:53.720Z,4.40
2023-02-18T02:03:20.383Z,4.70
2023-02-18T02:05:47.128Z,4.68
2023-02-18T02:08:14.006Z,3.70
2023-02-18T02:11:02.725Z,4.47
2023-02-18T02:14:02.979Z,4.35
2023-02-18T02:17:03.381Z,4.22
2023-02-18T02:19:57.934Z,4.75
2023-02-18T02:22:52.410Z,4.60
2023-02-18T02:25:54.037Z,3.85
2023-02-18T02:28:39.245Z,4.18
2023-02-18T02:31:17.903Z,4.72
2023-02-18T02:34:11.057Z,3.95
2023-02-18T02:37:09.823Z,4.18
2023-02-18T02:40:02.917Z,4.20
2023-02-18T02:42:51.943Z,4.15
2023-02-18T02:45:33.985Z,3.95
2023-02-18T02:48:15.885Z,4.30
2023-02-18T02:50:51.756Z,3.83
2023-02-18T02:53:30.243Z,3.90
2023-02-18T02:55:57.067Z,4.25
2023-02-18T02:58:23.746Z,3.90
2023-02-18T03:01:21.101Z,4.43
2023-02-18T03:04:06.675Z,4.15
2023-02-18T03:07:00.959Z,4.30
2023-02-18T03:09:55.265Z,3.97
2023-02-18T03:12:56.653Z,4.00
2023-02-18T03:15:36.667Z,4.10
2023-02-18T03:18:20.629Z,3.80
2023-02-18T03:21:01.074Z,3.83
2023-02-18T03:23:32.638Z,3.58
2023-02-18T03:26:00.015Z,3.70
2023-02-18T03:28:32.093Z,3.75
2023-02-18T03:31:13.068Z,3.65
2023-02-18T03:33:46.443Z,3.63
2023-02-18T03:36:13.388Z,3.65
2023-02-18T03:38:50.226Z,3.75
2023-02-18T03:41:17.099Z,3.78
2023-02-18T03:43:55.310Z,3.78
2023-02-18T03:46:22.111Z,3.65
2023-02-18T03:48:48.817Z,3.50
2023-02-18T03:51:15.730Z,3.60
2023-02-18T03:53:42.373Z,3.55
2023-02-18T03:56:09.446Z,3.85
2023-02-18T03:58:36.292Z,3.63
2023-02-18T04:01:03.715Z,3.40
2023-02-18T04:03:30.776Z,3.25
2023-02-18T04:05:57.638Z,3.47
2023-02-18T04:08:25.136Z,3.20
2023-02-18T04:10:51.879Z,3.67
2023-02-18T04:13:19.040Z,3.10
2023-02-18T04:15:45.753Z,3.40
2023-02-18T04:18:12.750Z,3.78
2023-02-18T04:20:39.420Z,3.10
2023-02-18T04:23:06.067Z,3.60
2023-02-18T04:25:33.416Z,3.47
2023-02-18T04:28:00.124Z,3.55
2023-02-18T04:30:27.166Z,3.15
2023-02-18T04:32:53.878Z,2.90
2023-02-18T04:35:20.792Z,3.40
2023-02-18T04:37:47.483Z,2.97
2023-02-18T04:40:14.409Z,3.30
2023-02-18T04:42:41.115Z,3.40
2023-02-18T04:45:08.300Z,2.97
2023-02-18T04:47:35.058Z,3.13
2023-02-18T04:50:01.895Z,3.40
2023-02-18T04:52:28.588Z,3.20
2023-02-18T04:54:55.483Z,3.33
2023-02-18T04:57:22.204Z,3.28
2023-02-18T04:59:48.874Z,3.22
2023-02-18T05:02:15.593Z,3.00
2023-02-18T05:04:42.246Z,3.17
2023-02-18T05:07:08.904Z,3.25
2023-02-18T05:09:35.617Z,3.20
2023-02-18T05:12:02.268Z,2.85
2023-02-18T05:14:28.933Z,3.20
2023-02-18T05:16:55.769Z,3.28
2023-02-18T05:19:22.446Z,2.80
2023-02-18T05:21:49.153Z,3.13
2023-02-18T05:24:15.809Z,2.80
2023-02-18T05:26:42.594Z,2.97
2023-02-18T05:29:09.277Z,2.80
2023-02-18T05:31:36.012Z,2.80
2023-02-18T05:34:02.753Z,3.15
2023-02-18T05:36:29.432Z,3.15
2023-02-18T05:38:56.085Z,3.00
2023-02-18T05:41:22.853Z,2.65
2023-02-18T05:44:08.208Z,3.10
2023-02-18T05:46:35.082Z,3.20
2023-02-18T05:49:01.858Z,2.80
2023-02-18T05:51:28.580Z,2.78
2023-02-18T05:53:55.706Z,2.67
2023-02-18T05:56:22.739Z,3.00
2023-02-18T05:58:49.386Z,2.90
2023-02-18T06:01:16.042Z,2.78
2023-02-18T06:03:42.658Z,2.97
2023-02-18T06:06:09.999Z,2.55
2023-02-18T06:08:36.927Z,2.80
2023-02-18T06:11:04.089Z,3.13
2023-02-18T06:13:30.788Z,2.60
2023-02-18T06:15:57.530Z,2.60
2023-02-18T06:18:25.174Z,2.50
2023-02-18T06:20:51.949Z,2.95
2023-02-18T06:23:18.760Z,2.65
2023-02-18T06:25:45.413Z,2.70
2023-02-18T06:28:12.119Z,2.72
2023-02-18T06:30:38.971Z,2.28
2023-02-18T06:33:05.983Z,2.58
2023-02-18T06:35:32.810Z,2.45
2023-02-18T06:37:59.510Z,2.47
2023-02-18T06:40:26.349Z,2.65
2023-02-18T06:42:53.084Z,2.70
2023-02-18T06:45:19.756Z,2.40
2023-02-18T06:47:46.604Z,2.60
2023-02-18T06:50:13.967Z,2.60
2023-02-18T06:52:40.701Z,2.60
2023-02-18T06:55:09.550Z,2.10
2023-02-18T06:57:36.229Z,2.38
2023-02-18T07:00:03.878Z,2.10
2023-02-18T07:02:30.563Z,2.17
2023-02-18T07:04:57.376Z,2.35
2023-02-18T07:07:24.166Z,1.92
2023-02-18T07:09:50.822Z,1.92
2023-02-18T07:12:17.499Z,1.95
2023-02-18T07:14:44.265Z,1.75
2023-02-18T07:17:10.939Z,2.05
2023-02-18T07:19:37.719Z,1.88
2023-02-18T07:22:04.463Z,1.90
2023-02-18T07:24:31.074Z,1.92
2023-02-18T07:26:57.983Z,1.95
2023-02-18T07:29:24.773Z,1.70
2023-02-18T07:31:51.585Z,1.52
2023-02-18T07:34:18.344Z,1.58
2023-02-18T07:36:49.164Z,1.85
2023-02-18T07:39:18.169Z,1.75
2023-02-18T07:41:44.839Z,1.63
2023-02-18T07:44:11.495Z,1.90
2023-02-18T07:46:43.509Z,2.00
2023-02-18T07:49:11.391Z,1.80
2023-02-18T07:51:40.217Z,1.83
2023-02-18T07:54:06.972Z,1.70
2023-02-18T07:56:33.654Z,1.80
2023-02-18T07:59:00.571Z,2.10
2023-02-18T08:01:27.245Z,1.70
2023-02-18T08:03:54.027Z,1.88
2023-02-18T08:06:26.168Z,1.95
2023-02-18T08:08:52.781Z,1.90
2023-02-18T08:11:19.967Z,1.73
2023-02-18T08:13:48.399Z,1.90
2023-02-18T08:16:16.949Z,1.80
2023-02-18T08:18:44.146Z,1.80
2023-02-18T08:21:10.951Z,1.95
2023-02-18T08:23:37.567Z,1.98
2023-02-18T08:26:04.460Z,1.77
2023-02-18T08:28:31.331Z,1.85
2023-02-18T08:30:58.583Z,1.98
2023-02-18T08:33:25.845Z,1.90
2023-02-18T08:35:54.148Z,1.60
2023-02-18T08:38:22.210Z,1.80
2023-02-18T08:40:49.755Z,1.98
2023-02-18T08:43:18.466Z,2.13
2023-02-18T08:45:45.208Z,2.03
2023-02-18T08:48:19.360Z,1.92
2023-02-18T08:50:48.296Z,1.67
2023-02-18T08:53:15.577Z,1.60
2023-02-18T08:55:42.509Z,2.35
2023-02-18T08:58:09.817Z,2.40
2023-02-18T09:00:38.300Z,2.38
2023-02-18T09:03:05.482Z,2.10
2023-02-18T09:05:32.239Z,2.03
2023-02-18T09:07:59.009Z,1.65
2023-02-18T09:10:25.772Z,1.80
2023-02-18T09:12:52.457Z,1.52
2023-02-18T09:15:19.324Z,1.60
2023-02-18T09:17:46.247Z,1.63
2023-02-18T09:20:13.339Z,2.13
2023-02-18T09:22:40.389Z,1.95
2023-02-18T09:25:07.568Z,2.33
2023-02-18T09:27:34.232Z,2.00
2023-02-18T09:30:00.952Z,2.03
2023-02-18T09:32:35.561Z,1.85
2023-02-18T09:35:03.839Z,1.70
2023-02-18T09:37:31.029Z,1.90
2023-02-18T09:39:57.723Z,2.20
2023-02-18T09:42:31.011Z,1.40
2023-02-18T09:45:01.940Z,1.50
2023-02-18T09:47:40.300Z,1.77
2023-02-18T09:50:28.696Z,1.92
2023-02-18T09:52:58.329Z,1.48
2023-02-18T09:55:46.209Z,1.58
2023-02-18T09:58:19.482Z,1.50
2023-02-18T10:01:03.722Z,1.48
2023-02-18T10:03:31.932Z,1.63
2023-02-18T10:06:17.751Z,1.40
2023-02-18T10:08:49.293Z,1.80
2023-02-18T10:11:31.641Z,2.00
2023-02-18T10:14:01.028Z,1.75
2023-02-18T10:16:27.745Z,2.03
2023-02-18T10:19:09.766Z,1.50
2023-02-18T10:21:36.764Z,1.50
2023-02-18T10:24:28.367Z,1.30
2023-02-18T10:26:56.100Z,1.75
2023-02-18T10:29:24.538Z,1.45
2023-02-18T10:31:56.991Z,1.10
2023-02-18T10:34:49.781Z,1.30
2023-02-18T10:37:31.496Z,1.60
2023-02-18T10:40:03.676Z,1.42
2023-02-18T10:43:08.072Z,1.50
2023-02-18T10:46:09.525Z,1.40
2023-02-18T10:48:36.202Z,1.23
2023-02-18T10:51:28.301Z,1.00
2023-02-18T10:53:55.859Z,1.10
2023-02-18T10:56:40.809Z,1.40
2023-02-18T10:59:10.657Z,1.38
2023-02-18T11:01:37.803Z,1.33
2023-02-18T11:04:12.492Z,1.40
2023-02-18T11:06:46.848Z,1.48
2023-02-18T11:09:46.954Z,1.48
2023-02-18T11:12:47.397Z,1.02
2023-02-18T11:15:14.096Z,1.15
2023-02-18T11:17:42.752Z,1.40
2023-02-18T11:20:26.689Z,1.35
2023-02-18T11:22:58.226Z,1.10
2023-02-18T11:25:33.383Z,1.45
2023-02-18T11:28:18.421Z,1.85
2023-02-18T11:30:48.851Z,1.60
2023-02-18T11:33:21.371Z,1.48
2023-02-18T11:35:53.117Z,1.50
2023-02-18T11:38:33.157Z,1.75
2023-02-18T11:41:07.849Z,1.95
2023-02-18T11:43:35.387Z,1.98
2023-02-18T11:46:29.502Z,1.90
2023-02-18T11:48:56.693Z,1.50
2023-02-18T11:51:37.826Z,1.90
2023-02-18T11:54:20.366Z,2.00
2023-02-18T11:57:14.429Z,1.67
2023-02-18T11:59:42.600Z,1.40
2023-02-18T12:02:09.441Z,1.77
2023-02-18T12:04:56.124Z,1.42
2023-02-18T12:07:28.134Z,1.70
2023-02-18T12:10:10.809Z,1.00
2023-02-18T12:12:44.418Z,1.35
2023-02-18T12:15:18.254Z,1.10
2023-02-18T12:17:50.716Z,0.88
2023-02-18T12:20:46.810Z,1.35
2023-02-18T12:23:35.264Z,1.27
2023-02-18T12:26:36.023Z,1.42
2023-02-18T12:29:09.630Z,1.23
2023-02-18T12:31:48.390Z,1.40
2023-02-18T12:34:34.816Z,1.50
2023-02-18T12:37:49.018Z,1.20
2023-02-18T12:40:31.712Z,1.60
2023-02-18T12:43:04.169Z,1.25
2023-02-18T12:45:46.239Z,1.40
2023-02-18T12:48:27.943Z,1.70
2023-02-18T12:51:25.938Z,1.50
2023-02-18T12:54:07.361Z,1.65
2023-02-18T12:56:36.738Z,1.52
2023-02-18T12:59:15.310Z,1.70
2023-02-18T13:02:17.327Z,1.35
2023-02-18T13:05:04.787Z,1.23
2023-02-18T13:08:02.758Z,1.52
2023-02-18T13:10:49.586Z,1.42
2023-02-18T13:13:22.363Z,1.65
2023-02-18T13:15:53.573Z,1.30
2023-02-18T13:18:34.446Z,1.33
2023-02-18T13:21:06.650Z,1.45
2023-02-18T13:23:42.260Z,1.88
2023-02-18T13:26:13.843Z,1.38
2023-02-18T13:29:14.549Z,1.70
2023-02-18T13:32:03.940Z,1.63
2023-02-18T13:34:50.620Z,1.40
2023-02-18T13:37:26.578Z,1.27
2023-02-18T13:39:56.903Z,1.90
2023-02-18T13:42:32.400Z,1.67
2023-02-18T13:44:59.082Z,1.08
2023-02-18T13:47:42.470Z,1.50
2023-02-18T13:50:27.165Z,1.30
2023-02-18T13:53:14.673Z,1.42
2023-02-18T13:55:52.758Z,1.40
2023-02-18T13:58:27.485Z,1.38
2023-02-18T14:01:00.917Z,1.25
2023-02-18T14:03:30.663Z,1.27
2023-02-18T14:05:57.852Z,1.33
2023-02-18T14:08:34.891Z,1.48
2023-02-18T14:11:14.277Z,1.85
2023-02-18T14:14:14.424Z,2.55
2023-02-18T14:17:18.453Z,2.10
2023-02-18T14:20:00.200Z,2.20
2023-02-18T14:22:38.855Z,2.60
2023-02-18T14:25:08.476Z,3.10
2023-02-18T14:27:37.330Z,4.00
2023-02-18T14:30:28.185Z,3.60
2023-02-18T14:33:00.375Z,2.95
2023-02-18T14:35:42.219Z,2.88
2023-02-18T14:38:11.905Z,3.10
2023-02-18T14:41:14.902Z,2.70
2023-02-18T14:44:01.701Z,2.35
2023-02-18T14:46:48.325Z,3.08
2023-02-18T14:49:23.803Z,2.08
2023-02-18T14:51:53.030Z,2.67
2023-02-18T14:54:22.714Z,2.80
2023-02-18T14:57:14.893Z,2.47
2023-02-18T14:59:43.113Z,2.40
2023-02-18T15:02:27.445Z,2.47
2023-02-18T15:04:54.376Z,3.13
2023-02-18T15:07:22.612Z,3.10
2023-02-18T15:09:55.711Z,3.35
2023-02-18T15:12:25.716Z,2.80
2023-02-18T15:14:54.672Z,2.90
2023-02-18T15:17:24.769Z,16.50
2023-02-18T15:19:54.609Z,6.88
2023-02-18T15:22:23.874Z,4.32
2023-02-18T15:24:55.772Z,2.45
2023-02-18T15:27:35.379Z,2.40
2023-02-18T15:30:39.319Z,1.80
2023-02-18T15:33:13.675Z,2.03
2023-02-18T15:35:41.796Z,2.92
2023-02-18T15:38:17.720Z,2.42
2023-02-18T15:40:49.074Z,1.92
2023-02-18T15:43:20.872Z,1.95
2023-02-18T15:45:49.057Z,3.35
2023-02-18T15:48:33.360Z,5.28
2023-02-18T15:51:16.509Z,1.90
2023-02-18T15:53:47.489Z,1.90
2023-02-18T15:56:23.904Z,1.80
2023-02-18T15:58:50.629Z,1.83
2023-02-18T16:01:29.202Z,1.90
2023-02-18T16:03:56.630Z,1.75
2023-02-18T16:06:25.573Z,2.65
2023-02-18T16:09:03.168Z,2.25
2023-02-18T16:11:38.086Z,2.15
2023-02-18T16:14:08.064Z,3.00
2023-02-18T16:16:37.209Z,1.90
2023-02-18T16:19:04.300Z,2.10
2023-02-18T16:21:43.700Z,2.70
2023-02-18T16:24:29.120Z,2.72
2023-02-18T16:27:00.361Z,3.00
2023-02-18T16:29:43.647Z,2.47
2023-02-18T16:32:10.634Z,2.60
2023-02-18T16:34:37.430Z,3.13
2023-02-18T16:37:22.611Z,2.55
2023-02-18T16:39:51.963Z,2.33
2023-02-18T16:42:21.282Z,2.42
2023-02-18T16:44:49.989Z,2.40
2023-02-18T16:47:18.152Z,3.72
2023-02-18T16:49:51.064Z,3.80
2023-02-18T16:52:19.322Z,3.65
2023-02-18T16:54:48.185Z,3.40
2023-02-18T16:57:14.911Z,6.38
2023-02-18T16:59:41.614Z,7.78
2023-02-18T17:02:17.779Z,6.07
2023-02-18T17:04:44.463Z,5.32
2023-02-18T17:07:11.616Z,6.40
2023-02-18T17:09:38.368Z,4.35
2023-02-18T17:12:05.337Z,3.45
2023-02-18T17:14:32.306Z,3.58
2023-02-18T17:16:59.305Z,3.10
2023-02-18T17:19:25.993Z,3.00
2023-02-18T17:21:52.630Z,3.05
2023-02-18T17:24:19.377Z,2.60
2023-02-18T17:26:46.091Z,2.85
2023-02-18T17:29:13.815Z,2.83
2023-02-18T17:31:44.540Z,2.53
2023-02-18T17:34:18.818Z,2.80
2023-02-18T17:36:45.671Z,3.90
2023-02-18T17:39:14.191Z,3.05
2023-02-18T17:41:41.340Z,3.60
2023-02-18T17:44:22.731Z,5.75
2023-02-18T17:46:50.060Z,6.93
2023-02-18T17:49:17.027Z,7.90
2023-02-18T17:51:44.199Z,5.95
2023-02-18T17:54:19.427Z,8.50
2023-02-18T17:56:46.810Z,8.60
2023-02-18T17:59:13.765Z,13.00
2023-02-18T18:01:40.931Z,10.60
2023-02-18T18:04:15.601Z,5.60
2023-02-18T18:06:42.681Z,4.68
2023-02-18T18:09:09.887Z,3.08
2023-02-18T18:11:37.121Z,2.83
2023-02-18T18:14:03.935Z,2.78
2023-02-18T18:16:30.739Z,2.72
2023-02-18T18:18:57.438Z,2.70
2023-02-18T18:21:31.310Z,3.13
2023-02-18T18:23:58.083Z,3.28
2023-02-18T18:26:24.990Z,3.20
2023-02-18T18:28:51.708Z,2.60
2023-02-18T18:31:20.683Z,2.67
2023-02-18T18:33:50.536Z,2.90
2023-02-18T18:36:19.863Z,3.10
2023-02-18T18:38:46.632Z,3.17
2023-02-18T18:41:16.219Z,4.97
2023-02-18T18:43:42.962Z,8.43
2023-02-18T18:46:09.994Z,16.15
2023-02-18T18:48:36.872Z,15.52
2023-02-18T18:51:03.723Z,11.35
2023-02-18T18:53:33.551Z,14.20
2023-02-18T18:56:05.497Z,19.30
2023-02-18T18:58:32.881Z,14.88
2023-02-18T19:01:02.281Z,11.05
2023-02-18T19:03:29.872Z,6.65
2023-02-18T19:05:57.215Z,3.95
2023-02-18T19:08:23.960Z,5.15
2023-02-18T19:10:53.491Z,5.82
2023-02-18T19:13:23.553Z,4.28
2023-02-18T19:16:19.638Z,4.03
2023-02-18T19:18:46.737Z,6.07
2023-02-18T19:21:13.479Z,4.03
2023-02-18T19:23:40.802Z,4.65
2023-02-18T19:26:08.198Z,4.13
2023-02-18T19:28:35.112Z,4.20
2023-02-18T19:31:01.980Z,5.20
2023-02-18T19:33:28.805Z,4.57
2023-02-18T19:35:55.586Z,4.38
2023-02-18T19:38:22.354Z,3.58
2023-02-18T19:40:49.115Z,4.00
2023-02-18T19:43:16.049Z,4.00
2023-02-18T19:45:45.384Z,4.75
2023-02-18T19:48:13.641Z,6.63
2023-02-18T19:50:42.065Z,5.78
2023-02-18T19:53:10.038Z,3.80
2023-02-18T19:55:36.793Z,4.85
2023-02-18T19:58:03.553Z,3.25
2023-02-18T20:00:30.318Z,3.28
2023-02-18T20:02:57.115Z,2.78
2023-02-18T20:05:24.060Z,2.90
2023-02-18T20:07:50.778Z,2.42
2023-02-18T20:10:22.078Z,2.70
2023-02-18T20:12:53.597Z,2.40
2023-02-18T20:15:21.173Z,2.85
2023-02-18T20:17:48.041Z,3.67
2023-02-18T20:20:14.792Z,4.15
2023-02-18T20:22:41.664Z,4.18
2023-02-18T20:25:08.734Z,4.82
2023-02-18T20:27:37.529Z,4.50
2023-02-18T20:30:07.992Z,4.30
2023-02-18T20:32:35.950Z,3.83
2023-02-18T20:35:03.480Z,3.38
2023-02-18T20:37:30.482Z,3.80
2023-02-18T20:39:57.334Z,3.92
2023-02-18T20:42:24.045Z,3.10
2023-02-18T20:44:51.804Z,3.70
2023-02-18T20:47:18.615Z,3.67
2023-02-18T20:49:46.718Z,3.75
2023-02-18T20:52:13.937Z,3.55
2023-02-18T20:54:40.677Z,3.60
2023-02-18T20:57:08.974Z,3.78
2023-02-18T20:59:35.843Z,3.83
2023-02-18T21:02:02.644Z,3.47
2023-02-18T21:04:29.529Z,2.80
2023-02-18T21:06:56.332Z,2.83
2023-02-18T21:09:23.189Z,3.08
2023-02-18T21:11:49.988Z,2.70
2023-02-18T21:14:17.038Z,2.10
2023-02-18T21:16:43.923Z,2.40
2023-02-18T21:19:16.055Z,1.90
2023-02-18T21:21:44.431Z,1.50
2023-02-18T21:24:11.812Z,2.05
2023-02-18T21:26:39.233Z,1.80
2023-02-18T21:29:08.208Z,2.33
2023-02-18T21:31:37.799Z,2.20
2023-02-18T21:34:05.927Z,1.77
2023-02-18T21:36:33.519Z,1.50
2023-02-18T21:39:02.395Z,1.67
2023-02-18T21:41:30.394Z,1.50
2023-02-18T21:43:57.587Z,1.40
2023-02-18T21:46:26.937Z,1.90
2023-02-18T21:49:03.166Z,1.80
2023-02-18T21:51:50.617Z,1.70
2023-02-18T21:54:20.089Z,1.33
2023-02-18T21:56:47.667Z,1.40
2023-02-18T21:59:14.465Z,1.30
2023-02-18T22:01:41.448Z,1.27
2023-02-18T22:04:08.298Z,1.83
2023-02-18T22:06:35.118Z,1.50
2023-02-18T22:09:03.428Z,1.25
2023-02-18T22:11:30.945Z,1.63
2023-02-18T22:13:58.272Z,1.40
2023-02-18T22:16:28.071Z,1.55
2023-02-18T22:18:58.582Z,1.60
2023-02-18T22:21:25.739Z,1.70
2023-02-18T22:23:52.779Z,1.65
2023-02-18T22:26:19.808Z,1.83
2023-02-18T22:28:55.019Z,1.50
2023-02-18T22:31:23.106Z,1.63
2023-02-18T22:33:52.211Z,1.92
2023-02-18T22:36:20.811Z,1.70
2023-02-18T22:38:47.889Z,1.70
2023-02-18T22:41:17.526Z,1.48
2023-02-18T22:43:44.552Z,1.50
2023-02-18T22:46:14.082Z,1.90
2023-02-18T22:48:41.430Z,1.65
2023-02-18T22:51:11.434Z,1.83
2023-02-18T22:53:39.123Z,1.63
2023-02-18T22:56:08.815Z,1.80
2023-02-18T22:58:36.574Z,1.63
2023-02-18T23:01:04.536Z,1.73
2023-02-18T23:03:31.316Z,1.42
2023-02-18T23:06:02.916Z,1.70
2023-02-18T23:08:30.854Z,1.40
2023-02-18T23:11:06.359Z,1.88
2023-02-18T23:13:33.804Z,1.73
2023-02-18T23:16:06.777Z,1.50
2023-02-18T23:18:35.039Z,1.63
2023-02-18T23:21:18.167Z,1.77
2023-02-18T23:23:46.399Z,1.30
2023-02-18T23:26:13.889Z,1.45
2023-02-18T23:28:50.310Z,2.00
2023-02-18T23:31:27.884Z,1.80
2023-02-18T23:33:57.255Z,1.50
2023-02-18T23:36:29.733Z,1.75
2023-02-18T23:38:59.717Z,1.70
2023-02-18T23:41:27.509Z,1.67
2023-02-18T23:43:54.240Z,1.65
2023-02-18T23:46:23.206Z,1.88
2023-02-18T23:48:49.932Z,1.42
2023-02-18T23:51:19.559Z,1.70
2023-02-18T23:53:46.562Z,1.67
2023-02-18T23:56:25.363Z,1.60
2023-02-18T23:58:54.988Z,1.40
